createdAt,value
2023-05-10T00:00:23.756Z,1008.04
2023-05-10T00:01:26.739Z,1008.06
2023-05-10T00:02:30.393Z,1008.07
2023-05-10T00:04:06.232Z,1008.06
2023-05-10T00:05:09.793Z,1008.00
2023-05-10T00:06:13.057Z,1008.03
2023-05-10T00:07:48.159Z,1008.03
2023-05-10T00:08:51.160Z,1008.00
2023-05-10T00:09:54.312Z,1008.02
2023-05-10T00:11:29.271Z,1007.97
2023-05-10T00:12:32.214Z,1008.00
2023-05-10T00:13:36.164Z,1008.01
2023-05-10T00:15:11.392Z,1007.98
2023-05-10T00:16:14.481Z,1007.97
2023-05-10T00:17:18.059Z,1007.99
2023-05-10T00:18:53.102Z,1007.93
2023-05-10T00:19:56.327Z,1007.97
2023-05-10T00:20:59.312Z,1007.97
2023-05-10T00:22:34.428Z,1007.95
2023-05-10T00:23:37.659Z,1007.98
2023-05-10T00:24:40.506Z,1007.93
2023-05-10T00:26:15.526Z,1007.96
2023-05-10T00:27:18.821Z,1007.93
2023-05-10T00:28:21.981Z,1007.93
2023-05-10T00:29:56.830Z,1007.88
2023-05-10T00:31:00.043Z,1007.89
2023-05-10T00:32:03.215Z,1007.89
2023-05-10T00:33:38.696Z,1007.91
2023-05-10T00:34:41.672Z,1007.85
2023-05-10T00:35:44.716Z,1007.86
2023-05-10T00:37:19.792Z,1007.85
2023-05-10T00:38:23.073Z,1007.82
2023-05-10T00:39:26.221Z,1007.81
2023-05-10T00:41:01.562Z,1007.83
2023-05-10T00:42:04.629Z,1007.78
2023-05-10T00:43:07.531Z,1007.83
2023-05-10T00:44:42.414Z,1007.82
2023-05-10T00:45:45.489Z,1007.81
2023-05-10T00:46:48.815Z,1007.85
2023-05-10T00:48:24.046Z,1007.81
2023-05-10T00:49:27.129Z,1007.80
2023-05-10T00:50:30.400Z,1007.82
2023-05-10T00:52:05.453Z,1007.82
2023-05-10T00:53:08.500Z,1007.82
2023-05-10T00:54:11.794Z,1007.83
2023-05-10T00:55:46.646Z,1007.81
2023-05-10T00:56:49.451Z,1007.75
2023-05-10T00:57:52.259Z,1007.79
2023-05-10T00:59:27.187Z,1007.80
2023-05-10T01:00:23.473Z,1007.81
2023-05-10T01:01:26.579Z,1007.82
2023-05-10T01:02:30.121Z,1007.85
2023-05-10T01:04:05.850Z,1007.84
2023-05-10T01:05:09.255Z,1007.81
2023-05-10T01:06:12.763Z,1007.85
2023-05-10T01:07:47.617Z,1007.83
2023-05-10T01:08:50.551Z,1007.81
2023-05-10T01:09:53.831Z,1007.83
2023-05-10T01:11:28.481Z,1007.81
2023-05-10T01:12:31.441Z,1007.80
2023-05-10T01:13:34.890Z,1007.77
2023-05-10T01:15:09.609Z,1007.79
2023-05-10T01:16:12.732Z,1007.79
2023-05-10T01:17:16.007Z,1007.76
2023-05-10T01:18:50.949Z,1007.79
2023-05-10T01:19:54.112Z,1007.76
2023-05-10T01:20:57.164Z,1007.79
2023-05-10T01:22:31.935Z,1007.77
2023-05-10T01:23:34.811Z,1007.76
2023-05-10T01:24:37.820Z,1007.74
2023-05-10T01:26:12.607Z,1007.71
2023-05-10T01:27:15.516Z,1007.71
2023-05-10T01:28:18.438Z,1007.70
2023-05-10T01:30:05.061Z,1007.69
2023-05-10T01:31:19.862Z,1007.72
2023-05-10T01:32:23.234Z,1007.70
2023-05-10T01:33:57.988Z,1007.72
2023-05-10T01:35:00.883Z,1007.72
2023-05-10T01:36:04.017Z,1007.73
2023-05-10T01:37:38.852Z,1007.75
2023-05-10T01:38:42.070Z,1007.76
2023-05-10T01:39:45.088Z,1007.78
2023-05-10T01:41:19.975Z,1007.72
2023-05-10T01:42:23.091Z,1007.75
2023-05-10T01:43:26.121Z,1007.76
2023-05-10T01:45:00.700Z,1007.76
2023-05-10T01:46:03.476Z,1007.79
2023-05-10T01:47:06.862Z,1007.74
2023-05-10T01:48:41.622Z,1007.80
2023-05-10T01:49:44.551Z,1007.75
2023-05-10T01:50:47.583Z,1007.78
2023-05-10T01:52:22.151Z,1007.81
2023-05-10T01:53:25.282Z,1007.76
2023-05-10T01:54:28.402Z,1007.76
2023-05-10T01:56:03.208Z,1007.79
2023-05-10T01:57:06.260Z,1007.78
2023-05-10T01:58:09.394Z,1007.77
2023-05-10T01:59:44.366Z,1007.79
2023-05-10T02:01:27.128Z,1007.78
2023-05-10T02:02:30.100Z,1007.75
2023-05-10T02:04:05.647Z,1007.78
2023-05-10T02:05:08.760Z,1007.80
2023-05-10T02:06:11.536Z,1007.78
2023-05-10T02:07:46.075Z,1007.82
2023-05-10T02:08:48.994Z,1007.82
2023-05-10T02:09:51.958Z,1007.80
2023-05-10T02:11:26.697Z,1007.79
2023-05-10T02:12:29.743Z,1007.83
2023-05-10T02:13:33.118Z,1007.80
2023-05-10T02:15:08.059Z,1007.87
2023-05-10T02:16:11.161Z,1007.89
2023-05-10T02:17:14.239Z,1007.86
2023-05-10T02:18:48.842Z,1007.88
2023-05-10T02:19:51.893Z,1007.90
2023-05-10T02:20:55.039Z,1007.92
2023-05-10T02:22:29.535Z,1007.89
2023-05-10T02:23:32.632Z,1007.88
2023-05-10T02:24:35.448Z,1007.89
2023-05-10T02:26:10.058Z,1007.89
2023-05-10T02:27:13.081Z,1007.89
2023-05-10T02:28:16.096Z,1007.92
2023-05-10T02:29:51.062Z,1007.91
2023-05-10T02:30:54.003Z,1007.93
2023-05-10T02:31:57.488Z,1007.95
2023-05-10T02:33:33.198Z,1007.95
2023-05-10T02:34:36.081Z,1007.96
2023-05-10T02:35:39.178Z,1007.97
2023-05-10T02:37:13.801Z,1007.99
2023-05-10T02:38:16.908Z,1008.00
2023-05-10T02:39:19.971Z,1007.99
2023-05-10T02:40:54.875Z,1007.98
2023-05-10T02:41:57.638Z,1007.96
2023-05-10T02:43:00.483Z,1007.94
2023-05-10T02:44:35.388Z,1007.95
2023-05-10T02:45:38.325Z,1007.93
2023-05-10T02:46:41.736Z,1007.90
2023-05-10T02:48:16.935Z,1007.92
2023-05-10T02:49:20.030Z,1007.95
2023-05-10T02:50:23.731Z,1007.95
2023-05-10T02:51:58.450Z,1008.00
2023-05-10T02:53:01.374Z,1007.98
2023-05-10T02:54:04.353Z,1008.01
2023-05-10T02:55:39.022Z,1008.00
2023-05-10T02:56:41.992Z,1007.97
2023-05-10T02:57:44.798Z,1008.01
2023-05-10T02:59:19.402Z,1007.98
2023-05-10T03:00:23.830Z,1008.01
2023-05-10T03:01:27.049Z,1007.99
2023-05-10T03:02:30.392Z,1007.97
2023-05-10T03:04:05.407Z,1008.02
2023-05-10T03:05:08.799Z,1008.03
2023-05-10T03:06:11.905Z,1008.04
2023-05-10T03:07:46.764Z,1008.04
2023-05-10T03:08:49.851Z,1008.11
2023-05-10T03:09:52.946Z,1008.05
2023-05-10T03:11:27.524Z,1008.05
2023-05-10T03:12:30.408Z,1008.06
2023-05-10T03:13:33.870Z,1008.00
2023-05-10T03:15:08.453Z,1008.04
2023-05-10T03:16:11.357Z,1008.04
2023-05-10T03:17:14.811Z,1007.97
2023-05-10T03:18:49.924Z,1007.96
2023-05-10T03:19:53.061Z,1007.97
2023-05-10T03:20:56.434Z,1007.96
2023-05-10T03:22:31.420Z,1007.92
2023-05-10T03:23:34.460Z,1007.97
2023-05-10T03:24:37.443Z,1008.03
2023-05-10T03:26:11.999Z,1008.03
2023-05-10T03:27:14.712Z,1008.04
2023-05-10T03:28:17.630Z,1008.05
2023-05-10T03:29:52.288Z,1008.06
2023-05-10T03:30:55.129Z,1008.09
2023-05-10T03:31:58.546Z,1008.08
2023-05-10T03:33:33.139Z,1008.11
2023-05-10T03:34:36.306Z,1008.08
2023-05-10T03:35:39.251Z,1008.15
2023-05-10T03:37:14.025Z,1008.16
2023-05-10T03:38:17.233Z,1008.17
2023-05-10T03:39:22.561Z,1008.16
2023-05-10T03:40:57.316Z,1008.16
2023-05-10T03:42:00.357Z,1008.17
2023-05-10T03:43:03.060Z,1008.19
2023-05-10T03:44:37.708Z,1008.17
2023-05-10T03:45:40.637Z,1008.20
2023-05-10T03:46:43.850Z,1008.18
2023-05-10T03:48:19.210Z,1008.22
2023-05-10T03:49:22.583Z,1008.24
2023-05-10T03:50:26.110Z,1008.20
2023-05-10T03:52:01.211Z,1008.20
2023-05-10T03:53:06.223Z,1008.22
2023-05-10T03:54:09.302Z,1008.22
2023-05-10T03:55:44.025Z,1008.23
2023-05-10T03:56:47.036Z,1008.19
2023-05-10T03:57:50.083Z,1008.16
2023-05-10T03:59:24.806Z,1008.15
2023-05-10T04:00:23.484Z,1008.19
2023-05-10T04:01:26.478Z,1008.24
2023-05-10T04:02:29.937Z,1008.20
2023-05-10T04:04:05.921Z,1008.23
2023-05-10T04:05:52.905Z,1008.25
2023-05-10T04:06:56.564Z,1008.22
2023-05-10T04:07:59.463Z,1008.25
2023-05-10T04:09:34.328Z,1008.31
2023-05-10T04:10:37.491Z,1008.30
2023-05-10T04:11:40.454Z,1008.34
2023-05-10T04:13:15.732Z,1008.35
2023-05-10T04:14:19.047Z,1008.36
2023-05-10T04:15:22.419Z,1008.33
2023-05-10T04:16:57.738Z,1008.38
2023-05-10T04:18:01.168Z,1008.40
2023-05-10T04:19:06.566Z,1008.40
2023-05-10T04:20:41.620Z,1008.40
2023-05-10T04:21:44.589Z,1008.40
2023-05-10T04:22:47.717Z,1008.41
2023-05-10T04:24:23.908Z,1008.42
2023-05-10T04:25:27.257Z,1008.38
2023-05-10T04:26:30.589Z,1008.39
2023-05-10T04:28:05.602Z,1008.37
2023-05-10T04:29:08.521Z,1008.33
2023-05-10T04:30:11.653Z,1008.40
2023-05-10T04:31:47.064Z,1008.38
2023-05-10T04:32:50.615Z,1008.37
2023-05-10T04:33:54.131Z,1008.40
2023-05-10T04:35:29.003Z,1008.35
2023-05-10T04:36:32.171Z,1008.35
2023-05-10T04:37:35.277Z,1008.37
2023-05-10T04:39:10.466Z,1008.42
2023-05-10T04:40:13.862Z,1008.41
2023-05-10T04:41:17.172Z,1008.44
2023-05-10T04:42:52.278Z,1008.43
2023-05-10T04:43:55.333Z,1008.44
2023-05-10T04:44:58.257Z,1008.47
2023-05-10T04:46:33.574Z,1008.46
2023-05-10T04:47:37.018Z,1008.44
2023-05-10T04:48:40.257Z,1008.46
2023-05-10T04:50:15.603Z,1008.46
2023-05-10T04:51:18.764Z,1008.52
2023-05-10T04:52:21.859Z,1008.47
2023-05-10T04:54:12.657Z,1008.53
2023-05-10T04:55:15.504Z,1008.50
2023-05-10T04:56:18.787Z,1008.55
2023-05-10T04:57:53.589Z,1008.56
2023-05-10T04:58:56.552Z,1008.59
2023-05-10T05:00:23.544Z,1008.59
2023-05-10T05:01:26.698Z,1008.58
2023-05-10T05:02:30.662Z,1008.64
2023-05-10T05:04:06.985Z,1008.63
2023-05-10T05:05:10.115Z,1008.64
2023-05-10T05:06:13.418Z,1008.67
2023-05-10T05:07:48.510Z,1008.66
2023-05-10T05:08:51.369Z,1008.64
2023-05-10T05:09:54.358Z,1008.67
2023-05-10T05:11:29.145Z,1008.72
2023-05-10T05:12:31.941Z,1008.71
2023-05-10T05:13:35.438Z,1008.75
2023-05-10T05:15:10.294Z,1008.75
2023-05-10T05:16:13.295Z,1008.73
2023-05-10T05:17:16.927Z,1008.77
2023-05-10T05:18:51.775Z,1008.76
2023-05-10T05:19:54.962Z,1008.75
2023-05-10T05:20:58.182Z,1008.80
2023-05-10T05:22:33.187Z,1008.82
2023-05-10T05:23:36.460Z,1008.80
2023-05-10T05:24:39.601Z,1008.82
2023-05-10T05:26:14.484Z,1008.84
2023-05-10T05:27:17.896Z,1008.83
2023-05-10T05:28:20.811Z,1008.80
2023-05-10T05:29:55.799Z,1008.84
2023-05-10T05:30:58.929Z,1008.90
2023-05-10T05:32:04.789Z,1008.88
2023-05-10T05:33:39.997Z,1008.91
2023-05-10T05:34:43.104Z,1008.91
2023-05-10T05:35:46.378Z,1008.90
2023-05-10T05:37:23.779Z,1008.89
2023-05-10T05:38:26.870Z,1008.89
2023-05-10T05:39:30.128Z,1008.93
2023-05-10T05:41:04.876Z,1008.94
2023-05-10T05:42:07.735Z,1008.93
2023-05-10T05:43:10.713Z,1008.99
2023-05-10T05:44:45.888Z,1008.95
2023-05-10T05:45:49.104Z,1008.98
2023-05-10T05:46:52.590Z,1009.01
2023-05-10T05:48:27.585Z,1008.99
2023-05-10T05:49:30.472Z,1008.99
2023-05-10T05:50:33.481Z,1009.00
2023-05-10T05:52:08.185Z,1009.02
2023-05-10T05:53:11.369Z,1009.02
2023-05-10T05:54:14.589Z,1009.02
2023-05-10T05:55:49.815Z,1009.06
2023-05-10T05:56:53.027Z,1009.04
2023-05-10T05:57:58.664Z,1009.05
2023-05-10T05:59:33.767Z,1009.02
2023-05-10T06:00:23.680Z,1009.07
2023-05-10T06:01:26.835Z,1009.09
2023-05-10T06:02:29.909Z,1009.09
2023-05-10T06:04:06.323Z,1009.03
2023-05-10T06:05:09.801Z,1009.03
2023-05-10T06:06:13.247Z,1009.00
2023-05-10T06:07:48.630Z,1009.07
2023-05-10T06:08:51.962Z,1009.08
2023-05-10T06:09:55.162Z,1009.10
2023-05-10T06:11:30.294Z,1009.11
2023-05-10T06:12:33.477Z,1009.14
2023-05-10T06:13:37.161Z,1009.15
2023-05-10T06:15:12.194Z,1009.12
2023-05-10T06:16:15.847Z,1009.15
2023-05-10T06:17:19.037Z,1009.15
2023-05-10T06:18:54.070Z,1009.17
2023-05-10T06:19:56.947Z,1009.11
2023-05-10T06:21:00.269Z,1009.10
2023-05-10T06:22:35.193Z,1009.13
2023-05-10T06:23:38.188Z,1009.12
2023-05-10T06:24:41.193Z,1009.12
2023-05-10T06:26:15.929Z,1009.12
2023-05-10T06:27:19.081Z,1009.15
2023-05-10T06:28:22.256Z,1009.12
2023-05-10T06:30:12.967Z,1009.14
2023-05-10T06:31:17.216Z,1009.16
2023-05-10T06:32:20.417Z,1009.18
2023-05-10T06:33:56.852Z,1009.16
2023-05-10T06:34:59.855Z,1009.21
2023-05-10T06:36:03.142Z,1009.24
2023-05-10T06:37:38.585Z,1009.21
2023-05-10T06:38:41.675Z,1009.22
2023-05-10T06:39:44.878Z,1009.25
2023-05-10T06:41:19.768Z,1009.27
2023-05-10T06:42:23.048Z,1009.30
2023-05-10T06:43:26.072Z,1009.24
2023-05-10T06:45:01.375Z,1009.26
2023-05-10T06:46:05.171Z,1009.29
2023-05-10T06:47:08.665Z,1009.32
2023-05-10T06:48:43.783Z,1009.25
2023-05-10T06:49:47.198Z,1009.27
2023-05-10T06:50:50.194Z,1009.33
2023-05-10T06:52:25.651Z,1009.32
2023-05-10T06:53:30.408Z,1009.32
2023-05-10T06:54:33.530Z,1009.32
2023-05-10T06:56:10.037Z,1009.40
2023-05-10T06:57:35.933Z,1009.41
2023-05-10T06:58:39.371Z,1009.41
2023-05-10T07:00:23.814Z,1009.41
2023-05-10T07:01:27.550Z,1009.45
2023-05-10T07:02:31.069Z,1009.45
2023-05-10T07:04:06.556Z,1009.47
2023-05-10T07:05:14.116Z,1009.50
2023-05-10T07:06:38.839Z,1009.52
2023-05-10T07:08:14.257Z,1009.55
2023-05-10T07:09:17.465Z,1009.50
2023-05-10T07:10:20.777Z,1009.54
2023-05-10T07:11:56.031Z,1009.53
2023-05-10T07:13:02.850Z,1009.53
2023-05-10T07:14:06.649Z,1009.55
2023-05-10T07:15:41.550Z,1009.56
2023-05-10T07:16:45.073Z,1009.52
2023-05-10T07:17:51.414Z,1009.56
2023-05-10T07:19:27.570Z,1009.56
2023-05-10T07:20:30.870Z,1009.62
2023-05-10T07:21:34.126Z,1009.61
2023-05-10T07:23:09.184Z,1009.63
2023-05-10T07:24:12.039Z,1009.65
2023-05-10T07:25:15.234Z,1009.72
2023-05-10T07:26:50.497Z,1009.70
2023-05-10T07:27:53.467Z,1009.73
2023-05-10T07:28:56.451Z,1009.75
2023-05-10T07:30:31.216Z,1009.79
2023-05-10T07:31:34.595Z,1009.81
2023-05-10T07:32:38.690Z,1009.78
2023-05-10T07:34:13.981Z,1009.77
2023-05-10T07:35:17.441Z,1009.83
2023-05-10T07:36:20.878Z,1009.78
2023-05-10T07:37:56.059Z,1009.81
2023-05-10T07:38:58.947Z,1009.86
2023-05-10T07:40:14.032Z,1009.80
2023-05-10T07:41:49.077Z,1009.84
2023-05-10T07:42:52.213Z,1009.84
2023-05-10T07:43:55.120Z,1009.86
2023-05-10T07:45:30.248Z,1009.88
2023-05-10T07:46:33.928Z,1009.89
2023-05-10T07:47:36.937Z,1009.89
2023-05-10T07:49:12.315Z,1009.90
2023-05-10T07:50:15.357Z,1009.92
2023-05-10T07:51:18.416Z,1009.92
2023-05-10T07:52:53.261Z,1009.92
2023-05-10T07:53:56.640Z,1009.90
2023-05-10T07:54:59.993Z,1009.94
2023-05-10T07:56:35.353Z,1009.95
2023-05-10T07:57:38.576Z,1009.98
2023-05-10T07:58:41.839Z,1009.97
2023-05-10T08:00:23.942Z,1009.97
2023-05-10T08:01:27.010Z,1010.00
2023-05-10T08:02:30.439Z,1010.01
2023-05-10T08:04:07.136Z,1010.03
2023-05-10T08:05:10.842Z,1010.02
2023-05-10T08:06:14.493Z,1010.01
2023-05-10T08:07:49.760Z,1010.07
2023-05-10T08:08:52.696Z,1010.06
2023-05-10T08:09:55.882Z,1010.11
2023-05-10T08:11:31.419Z,1010.09
2023-05-10T08:12:35.485Z,1010.13
2023-05-10T08:13:38.506Z,1010.11
2023-05-10T08:15:13.588Z,1010.13
2023-05-10T08:16:17.105Z,1010.15
2023-05-10T08:17:22.106Z,1010.15
2023-05-10T08:18:58.986Z,1010.18
2023-05-10T08:20:02.424Z,1010.16
2023-05-10T08:21:05.579Z,1010.20
2023-05-10T08:22:40.629Z,1010.18
2023-05-10T08:23:44.780Z,1010.17
2023-05-10T08:24:48.101Z,1010.17
2023-05-10T08:26:23.335Z,1010.19
2023-05-10T08:27:26.462Z,1010.18
2023-05-10T08:28:29.426Z,1010.25
2023-05-10T08:30:04.478Z,1010.21
2023-05-10T08:31:07.901Z,1010.25
2023-05-10T08:32:11.157Z,1010.26
2023-05-10T08:33:49.389Z,1010.26
2023-05-10T08:34:52.319Z,1010.26
2023-05-10T08:35:55.173Z,1010.28
2023-05-10T08:37:29.895Z,1010.26
2023-05-10T08:38:32.958Z,1010.30
2023-05-10T08:39:42.220Z,1010.27
2023-05-10T08:41:17.155Z,1010.29
2023-05-10T08:42:20.306Z,1010.26
2023-05-10T08:43:23.509Z,1010.29
2023-05-10T08:45:01.148Z,1010.28
2023-05-10T08:46:04.554Z,1010.27
2023-05-10T08:47:07.964Z,1010.30
2023-05-10T08:48:43.001Z,1010.32
2023-05-10T08:49:46.017Z,1010.32
2023-05-10T08:50:49.143Z,1010.33
2023-05-10T08:52:24.067Z,1010.37
2023-05-10T08:53:27.096Z,1010.38
2023-05-10T08:54:30.129Z,1010.36
2023-05-10T08:56:05.510Z,1010.39
2023-05-10T08:57:08.502Z,1010.41
2023-05-10T08:58:11.538Z,1010.39
2023-05-10T08:59:46.678Z,1010.43
2023-05-10T09:01:26.783Z,1010.45
2023-05-10T09:02:30.445Z,1010.45
2023-05-10T09:04:05.727Z,1010.55
2023-05-10T09:05:09.750Z,1010.53
2023-05-10T09:06:13.250Z,1010.55
2023-05-10T09:07:48.157Z,1010.54
2023-05-10T09:08:51.146Z,1010.56
2023-05-10T09:09:54.107Z,1010.57
2023-05-10T09:11:28.854Z,1010.57
2023-05-10T09:12:31.908Z,1010.58
2023-05-10T09:13:35.114Z,1010.58
2023-05-10T09:15:09.939Z,1010.63
2023-05-10T09:16:31.506Z,1010.62
2023-05-10T09:17:35.267Z,1010.66
2023-05-10T09:19:13.135Z,1010.66
2023-05-10T09:20:16.232Z,1010.64
2023-05-10T09:21:19.108Z,1010.70
2023-05-10T09:22:53.956Z,1010.71
2023-05-10T09:23:59.666Z,1010.69
2023-05-10T09:25:02.862Z,1010.72
2023-05-10T09:26:38.370Z,1010.75
2023-05-10T09:27:41.503Z,1010.75
2023-05-10T09:28:44.648Z,1010.79
2023-05-10T09:30:19.760Z,1010.73
2023-05-10T09:31:23.318Z,1010.81
2023-05-10T09:32:26.721Z,1010.81
2023-05-10T09:34:01.945Z,1010.82
2023-05-10T09:35:05.175Z,1010.83
2023-05-10T09:36:08.591Z,1010.83
2023-05-10T09:37:43.431Z,1010.87
2023-05-10T09:38:46.292Z,1010.91
2023-05-10T09:39:49.321Z,1010.90
2023-05-10T09:41:24.115Z,1010.92
2023-05-10T09:42:26.962Z,1010.92
2023-05-10T09:43:29.943Z,1010.91
2023-05-10T09:45:04.806Z,1010.97
2023-05-10T09:46:08.379Z,1010.98
2023-05-10T09:47:11.507Z,1010.95
2023-05-10T09:48:46.466Z,1010.96
2023-05-10T09:49:49.602Z,1010.95
2023-05-10T09:50:52.614Z,1011.00
2023-05-10T09:52:27.448Z,1011.00
2023-05-10T09:53:30.463Z,1011.03
2023-05-10T09:54:33.438Z,1011.01
2023-05-10T09:56:08.223Z,1010.99
2023-05-10T09:57:11.190Z,1011.04
2023-05-10T09:58:14.373Z,1011.03
2023-05-10T09:59:49.319Z,1011.07
2023-05-10T10:01:26.244Z,1011.06
2023-05-10T10:02:29.872Z,1011.06
2023-05-10T10:04:05.191Z,1011.07
2023-05-10T10:05:08.667Z,1011.08
2023-05-10T10:06:29.618Z,1011.10
2023-05-10T10:08:05.757Z,1011.07
2023-05-10T10:09:08.945Z,1011.08
2023-05-10T10:10:12.311Z,1011.08
2023-05-10T10:11:48.206Z,1011.10
2023-05-10T10:12:51.255Z,1011.09
2023-05-10T10:13:54.151Z,1011.10
2023-05-10T10:15:29.977Z,1011.08
2023-05-10T10:16:33.621Z,1011.09
2023-05-10T10:18:00.691Z,1011.11
2023-05-10T10:19:35.924Z,1011.17
2023-05-10T10:20:39.153Z,1011.11
2023-05-10T10:21:42.759Z,1011.14
2023-05-10T10:23:18.046Z,1011.18
2023-05-10T10:24:21.151Z,1011.15
2023-05-10T10:25:24.774Z,1011.17
2023-05-10T10:26:59.828Z,1011.16
2023-05-10T10:28:02.937Z,1011.16
2023-05-10T10:29:05.949Z,1011.16
2023-05-10T10:30:40.868Z,1011.19
2023-05-10T10:31:44.031Z,1011.21
2023-05-10T10:32:47.425Z,1011.20
2023-05-10T10:34:40.117Z,1011.17
2023-05-10T10:35:43.206Z,1011.24
2023-05-10T10:36:46.341Z,1011.21
2023-05-10T10:38:21.264Z,1011.23
2023-05-10T10:39:24.158Z,1011.23
2023-05-10T10:40:27.261Z,1011.20
2023-05-10T10:42:04.346Z,1011.22
2023-05-10T10:43:07.486Z,1011.19
2023-05-10T10:44:10.720Z,1011.20
2023-05-10T10:45:47.843Z,1011.22
2023-05-10T10:46:50.933Z,1011.21
2023-05-10T10:47:54.749Z,1011.23
2023-05-10T10:49:29.795Z,1011.26
2023-05-10T10:50:32.893Z,1011.24
2023-05-10T10:51:36.251Z,1011.24
2023-05-10T10:53:11.394Z,1011.19
2023-05-10T10:54:14.857Z,1011.18
2023-05-10T10:55:17.903Z,1011.21
2023-05-10T10:56:53.137Z,1011.17
2023-05-10T10:57:56.182Z,1011.19
2023-05-10T10:58:59.612Z,1011.21
2023-05-10T11:00:23.763Z,1011.18
2023-05-10T11:01:27.297Z,1011.17
2023-05-10T11:02:31.415Z,1011.18
2023-05-10T11:04:06.746Z,1011.16
2023-05-10T11:05:10.014Z,1011.19
2023-05-10T11:06:13.313Z,1011.19
2023-05-10T11:07:48.143Z,1011.20
2023-05-10T11:08:51.079Z,1011.24
2023-05-10T11:09:54.062Z,1011.22
2023-05-10T11:11:29.094Z,1011.20
2023-05-10T11:12:32.256Z,1011.22
2023-05-10T11:13:35.213Z,1011.22
2023-05-10T11:15:14.795Z,1011.27
2023-05-10T11:16:18.395Z,1011.26
2023-05-10T11:17:22.033Z,1011.28
2023-05-10T11:18:57.428Z,1011.32
2023-05-10T11:20:01.246Z,1011.32
2023-05-10T11:21:04.512Z,1011.34
2023-05-10T11:22:39.081Z,1011.33
2023-05-10T11:23:42.030Z,1011.35
2023-05-10T11:24:44.871Z,1011.29
2023-05-10T11:26:19.795Z,1011.30
2023-05-10T11:27:22.814Z,1011.36
2023-05-10T11:28:26.155Z,1011.33
2023-05-10T11:30:02.646Z,1011.36
2023-05-10T11:31:08.114Z,1011.37
2023-05-10T11:32:11.532Z,1011.34
2023-05-10T11:33:46.729Z,1011.41
2023-05-10T11:34:49.723Z,1011.40
2023-05-10T11:35:54.897Z,1011.38
2023-05-10T11:37:29.737Z,1011.41
2023-05-10T11:38:32.670Z,1011.44
2023-05-10T11:39:35.723Z,1011.41
2023-05-10T11:41:10.368Z,1011.45
2023-05-10T11:42:13.138Z,1011.44
2023-05-10T11:43:16.095Z,1011.41
2023-05-10T11:44:51.207Z,1011.43
2023-05-10T11:45:54.547Z,1011.42
2023-05-10T11:46:58.046Z,1011.43
2023-05-10T11:48:33.076Z,1011.41
2023-05-10T11:49:36.606Z,1011.41
2023-05-10T11:50:39.711Z,1011.41
2023-05-10T11:52:14.687Z,1011.41
2023-05-10T11:53:17.822Z,1011.38
2023-05-10T11:54:23.319Z,1011.41
2023-05-10T11:55:58.072Z,1011.40
2023-05-10T11:57:01.014Z,1011.42
2023-05-10T11:58:04.124Z,1011.42
2023-05-10T11:59:41.768Z,1011.42
2023-05-10T12:01:26.422Z,1011.43
2023-05-10T12:02:29.865Z,1011.44
2023-05-10T12:04:07.315Z,1011.41
2023-05-10T12:05:11.794Z,1011.39
2023-05-10T12:06:14.935Z,1011.43
2023-05-10T12:07:50.578Z,1011.42
2023-05-10T12:08:53.712Z,1011.46
2023-05-10T12:09:56.789Z,1011.46
2023-05-10T12:11:31.992Z,1011.46
2023-05-10T12:12:36.427Z,1011.47
2023-05-10T12:13:39.387Z,1011.45
2023-05-10T12:15:14.067Z,1011.45
2023-05-10T12:16:17.164Z,1011.49
2023-05-10T12:17:20.174Z,1011.49
2023-05-10T12:18:55.716Z,1011.53
2023-05-10T12:19:59.452Z,1011.56
2023-05-10T12:21:03.261Z,1011.56
2023-05-10T12:22:38.181Z,1011.62
2023-05-10T12:23:41.207Z,1011.63
2023-05-10T12:24:44.159Z,1011.65
2023-05-10T12:26:19.363Z,1011.66
2023-05-10T12:27:22.470Z,1011.64
2023-05-10T12:28:25.362Z,1011.68
2023-05-10T12:30:00.033Z,1011.68
2023-05-10T12:31:03.437Z,1011.69
2023-05-10T12:32:07.124Z,1011.71
2023-05-10T12:33:42.015Z,1011.69
2023-05-10T12:34:45.229Z,1011.65
2023-05-10T12:35:48.839Z,1011.69
2023-05-10T12:37:23.776Z,1011.73
2023-05-10T12:38:26.655Z,1011.69
2023-05-10T12:39:29.650Z,1011.70
2023-05-10T12:41:04.902Z,1011.72
2023-05-10T12:42:08.271Z,1011.73
2023-05-10T12:43:11.205Z,1011.74
2023-05-10T12:44:46.303Z,1011.77
2023-05-10T12:45:49.382Z,1011.77
2023-05-10T12:46:52.564Z,1011.74
2023-05-10T12:48:27.501Z,1011.72
2023-05-10T12:49:30.621Z,1011.76
2023-05-10T12:50:34.097Z,1011.74
2023-05-10T12:52:09.031Z,1011.73
2023-05-10T12:53:11.967Z,1011.75
2023-05-10T12:54:14.990Z,1011.76
2023-05-10T12:55:49.827Z,1011.77
2023-05-10T12:56:52.962Z,1011.78
2023-05-10T12:57:55.902Z,1011.77
2023-05-10T12:59:40.852Z,1011.81
2023-05-10T13:01:26.892Z,1011.80
2023-05-10T13:02:30.800Z,1011.84
2023-05-10T13:04:05.989Z,1011.84
2023-05-10T13:05:09.628Z,1011.81
2023-05-10T13:06:12.497Z,1011.84
2023-05-10T13:07:47.516Z,1011.83
2023-05-10T13:08:50.392Z,1011.83
2023-05-10T13:09:53.478Z,1011.86
2023-05-10T13:11:28.351Z,1011.87
2023-05-10T13:12:31.302Z,1011.83
2023-05-10T13:13:34.248Z,1011.87
2023-05-10T13:15:09.005Z,1011.88
2023-05-10T13:16:11.995Z,1011.86
2023-05-10T13:17:15.954Z,1011.89
2023-05-10T13:18:52.753Z,1011.90
2023-05-10T13:19:56.365Z,1011.88
2023-05-10T13:20:59.472Z,1011.91
2023-05-10T13:22:52.244Z,1011.85
2023-05-10T13:23:55.347Z,1011.81
2023-05-10T13:24:58.214Z,1011.82
2023-05-10T13:26:33.368Z,1011.76
2023-05-10T13:27:36.436Z,1011.84
2023-05-10T13:28:39.493Z,1011.81
2023-05-10T13:30:14.447Z,1011.80
2023-05-10T13:31:17.565Z,1011.85
2023-05-10T13:32:20.900Z,1011.84
2023-05-10T13:33:56.072Z,1011.87
2023-05-10T13:34:59.266Z,1011.88
2023-05-10T13:36:01.981Z,1011.89
2023-05-10T13:37:36.911Z,1011.91
2023-05-10T13:38:39.802Z,1011.88
2023-05-10T13:39:42.637Z,1011.93
2023-05-10T13:41:18.086Z,1011.83
2023-05-10T13:42:20.903Z,1011.87
2023-05-10T13:43:23.809Z,1011.88
2023-05-10T13:44:59.285Z,1011.85
2023-05-10T13:46:02.632Z,1011.84
2023-05-10T13:47:05.994Z,1011.84
2023-05-10T13:48:44.356Z,1011.84
2023-05-10T13:49:47.393Z,1011.83
2023-05-10T13:50:50.217Z,1011.87
2023-05-10T13:52:24.937Z,1011.88
2023-05-10T13:53:27.890Z,1011.90
2023-05-10T13:54:30.903Z,1011.86
2023-05-10T13:56:05.573Z,1011.90
2023-05-10T13:57:08.764Z,1011.91
2023-05-10T13:58:11.839Z,1011.88
2023-05-10T13:59:46.802Z,1011.93
2023-05-10T14:01:26.517Z,1011.89
2023-05-10T14:02:30.009Z,1011.86
2023-05-10T14:04:05.854Z,1011.88
2023-05-10T14:05:09.309Z,1011.90
2023-05-10T14:06:17.898Z,1011.93
2023-05-10T14:07:52.753Z,1011.89
2023-05-10T14:08:55.582Z,1011.90
2023-05-10T14:09:58.540Z,1011.95
2023-05-10T14:11:35.958Z,1011.93
2023-05-10T14:12:38.910Z,1011.92
2023-05-10T14:13:41.893Z,1011.94
2023-05-10T14:15:17.099Z,1011.93
2023-05-10T14:16:20.664Z,1011.91
2023-05-10T14:17:24.105Z,1011.90
2023-05-10T14:18:59.651Z,1011.89
2023-05-10T14:20:02.826Z,1011.84
2023-05-10T14:21:06.108Z,1011.85
2023-05-10T14:22:41.369Z,1011.81
2023-05-10T14:23:44.523Z,1011.85
2023-05-10T14:24:47.555Z,1011.85
2023-05-10T14:26:22.522Z,1011.84
2023-05-10T14:27:25.360Z,1011.83
2023-05-10T14:28:28.663Z,1011.79
2023-05-10T14:30:03.834Z,1011.77
2023-05-10T14:31:06.866Z,1011.77
2023-05-10T14:32:10.459Z,1011.76
2023-05-10T14:33:45.835Z,1011.79
2023-05-10T14:34:48.791Z,1011.80
2023-05-10T14:35:51.802Z,1011.82
2023-05-10T14:37:26.645Z,1011.84
2023-05-10T14:38:29.576Z,1011.86
2023-05-10T14:39:32.598Z,1011.85
2023-05-10T14:41:08.255Z,1011.83
2023-05-10T14:42:12.042Z,1011.84
2023-05-10T14:43:14.890Z,1011.88
2023-05-10T14:44:49.701Z,1011.86
2023-05-10T14:45:52.925Z,1011.85
2023-05-10T14:46:55.988Z,1011.86
2023-05-10T14:48:31.530Z,1011.87
2023-05-10T14:49:34.433Z,1011.84
2023-05-10T14:50:48.785Z,1011.85
2023-05-10T14:52:23.612Z,1011.80
2023-05-10T14:53:26.493Z,1011.84
2023-05-10T14:54:29.953Z,1011.84
2023-05-10T14:56:04.869Z,1011.84
2023-05-10T14:57:07.799Z,1011.81
2023-05-10T14:58:11.105Z,1011.80
2023-05-10T14:59:47.027Z,1011.80
2023-05-10T15:01:27.799Z,1011.86